sensor_id;sensor_type;location;lat;lon;timestamp;temperature;humidity
19952;DHT22;10137;49.406;19.484;2023-07-02T00:00:18;16.60;99.90
19952;DHT22;10137;49.406;19.484;2023-07-02T00:02:48;16.70;99.90
19952;DHT22;10137;49.406;19.484;2023-07-02T00:05:15;16.80;99.90
19952;DHT22;10137;49.406;19.484;2023-07-02T00:07:44;16.80;99.90
19952;DHT22;10137;49.406;19.484;2023-07-02T00:10:13;16.80;99.90
19952;DHT22;10137;49.406;19.484;2023-07-02T00:12:41;16.80;99.90
19952;DHT22;10137;49.406;19.484;2023-07-02T00:15:11;16.80;99.90
19952;DHT22;10137;49.406;19.484;2023-07-02T00:17:39;16.80;99.90
19952;DHT22;10137;49.406;19.484;2023-07-02T00:20:08;16.90;99.90
19952;DHT22;10137;49.406;19.484;2023-07-02T00:22:41;16.90;99.90
19952;DHT22;10137;49.406;19.484;2023-07-02T00:25:13;16.80;99.90
19952;DHT22;10137;49.406;19.484;2023-07-02T00:27:41;16.80;99.90
19952;DHT22;10137;49.406;19.484;2023-07-02T00:30:10;16.90;99.90
19952;DHT22;10137;49.406;19.484;2023-07-02T00:32:38;16.90;99.90
19952;DHT22;10137;49.406;19.484;2023-07-02T00:35:08;16.90;99.90
19952;DHT22;10137;49.406;19.484;2023-07-02T00:37:36;16.90;99.90
19952;DHT22;10137;49.406;19.484;2023-07-02T00:40:04;16.90;99.90
19952;DHT22;10137;49.406;19.484;2023-07-02T00:42:33;16.90;99.90
19952;DHT22;10137;49.406;19.484;2023-07-02T00:45:01;16.80;99.90
19952;DHT22;10137;49.406;19.484;2023-07-02T00:47:30;16.70;99.90
19952;DHT22;10137;49.406;19.484;2023-07-02T00:49:59;16.70;99.90
19952;DHT22;10137;49.406;19.484;2023-07-02T00:52:30;16.70;99.90
19952;DHT22;10137;49.406;19.484;2023-07-02T00:54:58;16.60;99.90
19952;DHT22;10137;49.406;19.484;2023-07-02T00:57:26;16.60;99.90
19952;DHT22;10137;49.406;19.484;2023-07-02T00:59:57;16.50;99.90
19952;DHT22;10137;49.406;19.484;2023-07-02T01:02:26;16.50;99.90
19952;DHT22;10137;49.406;19.484;2023-07-02T01:04:56;16.50;99.90
19952;DHT22;10137;49.406;19.484;2023-07-02T01:07:26;16.50;99.90
19952;DHT22;10137;49.406;19.484;2023-07-02T01:09:55;16.50;99.90
19952;DHT22;10137;49.406;19.484;2023-07-02T01:12:23;16.50;99.90
19952;DHT22;10137;49.406;19.484;2023-07-02T01:14:52;16.60;99.90
19952;DHT22;10137;49.406;19.484;2023-07-02T01:17:22;16.50;99.90
19952;DHT22;10137;49.406;19.484;2023-07-02T01:19:54;16.50;99.90
19952;DHT22;10137;49.406;19.484;2023-07-02T01:22:27;16.60;99.90
19952;DHT22;10137;49.406;19.484;2023-07-02T01:24:56;16.50;99.90
19952;DHT22;10137;49.406;19.484;2023-07-02T01:27:24;16.60;99.90
19952;DHT22;10137;49.406;19.484;2023-07-02T01:29:56;16.50;99.90
19952;DHT22;10137;49.406;19.484;2023-07-02T01:32:25;16.50;99.90
19952;DHT22;10137;49.406;19.484;2023-07-02T01:34:55;16.40;99.90
19952;DHT22;10137;49.406;19.484;2023-07-02T01:37:23;16.30;99.90
19952;DHT22;10137;49.406;19.484;2023-07-02T01:39:50;16.30;99.90
19952;DHT22;10137;49.406;19.484;2023-07-02T01:42:19;16.40;99.90
19952;DHT22;10137;49.406;19.484;2023-07-02T01:44:49;16.40;99.90
19952;DHT22;10137;49.406;19.484;2023-07-02T01:47:17;16.40;99.90
19952;DHT22;10137;49.406;19.484;2023-07-02T01:49:46;16.40;99.90
19952;DHT22;10137;49.406;19.484;2023-07-02T01:52:15;16.40;99.90
19952;DHT22;10137;49.406;19.484;2023-07-02T01:54:43;16.40;99.90
19952;DHT22;10137;49.406;19.484;2023-07-02T01:57:11;16.40;99.90
19952;DHT22;10137;49.406;19.484;2023-07-02T01:59:39;16.50;99.90
19952;DHT22;10137;49.406;19.484;2023-07-02T02:02:06;16.50;99.90
19952;DHT22;10137;49.406;19.484;2023-07-02T02:04:34;16.50;99.90
19952;DHT22;10137;49.406;19.484;2023-07-02T02:07:03;16.50;99.90
19952;DHT22;10137;49.406;19.484;2023-07-02T02:09:32;16.50;99.90
19952;DHT22;10137;49.406;19.484;2023-07-02T02:12:01;16.60;99.90
19952;DHT22;10137;49.406;19.484;2023-07-02T02:14:29;16.60;99.90
19952;DHT22;10137;49.406;19.484;2023-07-02T02:16:59;16.70;99.90
19952;DHT22;10137;49.406;19.484;2023-07-02T02:19:27;16.70;99.90
19952;DHT22;10137;49.406;19.484;2023-07-02T02:21:54;16.70;99.90
19952;DHT22;10137;49.406;19.484;2023-07-02T02:24:22;16.70;99.90
19952;DHT22;10137;49.406;19.484;2023-07-02T02:26:51;16.70;99.90
19952;DHT22;10137;49.406;19.484;2023-07-02T02:29:20;16.70;99.90
19952;DHT22;10137;49.406;19.484;2023-07-02T02:31:48;16.60;99.90
19952;DHT22;10137;49.406;19.484;2023-07-02T02:34:16;16.60;99.90
19952;DHT22;10137;49.406;19.484;2023-07-02T02:36:44;16.50;99.90
19952;DHT22;10137;49.406;19.484;2023-07-02T02:39:12;16.50;99.90
19952;DHT22;10137;49.406;19.484;2023-07-02T02:41:41;16.40;99.90
19952;DHT22;10137;49.406;19.484;2023-07-02T02:44:10;16.30;99.90
19952;DHT22;10137;49.406;19.484;2023-07-02T02:46:37;16.30;99.90
19952;DHT22;10137;49.406;19.484;2023-07-02T02:49:04;16.30;99.90
19952;DHT22;10137;49.406;19.484;2023-07-02T02:51:31;16.30;99.90
19952;DHT22;10137;49.406;19.484;2023-07-02T02:53:59;16.30;99.90
19952;DHT22;10137;49.406;19.484;2023-07-02T02:56:27;16.20;99.90
19952;DHT22;10137;49.406;19.484;2023-07-02T02:58:54;16.20;99.90
19952;DHT22;10137;49.406;19.484;2023-07-02T03:01:23;16.10;99.90
19952;DHT22;10137;49.406;19.484;2023-07-02T03:03:58;16.10;99.90
19952;DHT22;10137;49.406;19.484;2023-07-02T03:06:26;15.90;99.90
19952;DHT22;10137;49.406;19.484;2023-07-02T03:08:54;15.80;99.90
19952;DHT22;10137;49.406;19.484;2023-07-02T03:11:22;15.70;99.90
19952;DHT22;10137;49.406;19.484;2023-07-02T03:13:51;15.80;99.90
19952;DHT22;10137;49.406;19.484;2023-07-02T03:16:19;15.80;99.90
19952;DHT22;10137;49.406;19.484;2023-07-02T03:18:49;15.80;99.90
19952;DHT22;10137;49.406;19.484;2023-07-02T03:21:16;15.70;99.90
19952;DHT22;10137;49.406;19.484;2023-07-02T03:23:44;15.70;99.90
19952;DHT22;10137;49.406;19.484;2023-07-02T03:26:13;15.70;99.90
19952;DHT22;10137;49.406;19.484;2023-07-02T03:28:39;15.80;99.90
19952;DHT22;10137;49.406;19.484;2023-07-02T03:31:08;15.80;99.90
19952;DHT22;10137;49.406;19.484;2023-07-02T03:33:35;15.70;99.90
19952;DHT22;10137;49.406;19.484;2023-07-02T03:36:05;15.70;99.90
19952;DHT22;10137;49.406;19.484;2023-07-02T03:38:33;15.70;99.90
19952;DHT22;10137;49.406;19.484;2023-07-02T03:41:01;15.60;99.90
19952;DHT22;10137;49.406;19.484;2023-07-02T03:43:29;15.60;99.90
19952;DHT22;10137;49.406;19.484;2023-07-02T03:45:57;15.70;99.90
19952;DHT22;10137;49.406;19.484;2023-07-02T03:48:25;15.80;99.90
19952;DHT22;10137;49.406;19.484;2023-07-02T03:50:54;15.80;99.90
19952;DHT22;10137;49.406;19.484;2023-07-02T03:53:24;15.80;99.90
19952;DHT22;10137;49.406;19.484;2023-07-02T03:55:52;15.80;99.90
19952;DHT22;10137;49.406;19.484;2023-07-02T03:58:20;15.90;99.90
19952;DHT22;10137;49.406;19.484;2023-07-02T04:00:48;16.00;99.90
19952;DHT22;10137;49.406;19.484;2023-07-02T04:03:16;16.00;99.90
19952;DHT22;10137;49.406;19.484;2023-07-02T04:05:44;16.00;99.90
19952;DHT22;10137;49.406;19.484;2023-07-02T04:08:11;16.10;99.90
19952;DHT22;10137;49.406;19.484;2023-07-02T04:10:40;16.00;99.90
19952;DHT22;10137;49.406;19.484;2023-07-02T04:13:08;16.00;99.90
19952;DHT22;10137;49.406;19.484;2023-07-02T04:15:37;16.10;99.90
19952;DHT22;10137;49.406;19.484;2023-07-02T04:18:05;16.10;99.90
19952;DHT22;10137;49.406;19.484;2023-07-02T04:20:34;16.20;99.90
19952;DHT22;10137;49.406;19.484;2023-07-02T04:23:03;16.20;99.90
19952;DHT22;10137;49.406;19.484;2023-07-02T04:25:32;16.30;99.90
19952;DHT22;10137;49.406;19.484;2023-07-02T04:28:05;16.30;99.90
19952;DHT22;10137;49.406;19.484;2023-07-02T04:30:34;16.30;99.90
19952;DHT22;10137;49.406;19.484;2023-07-02T04:33:01;16.30;99.90
19952;DHT22;10137;49.406;19.484;2023-07-02T04:35:29;16.30;99.90
19952;DHT22;10137;49.406;19.484;2023-07-02T04:37:58;16.30;99.90
19952;DHT22;10137;49.406;19.484;2023-07-02T04:40:26;16.40;99.90
19952;DHT22;10137;49.406;19.484;2023-07-02T04:42:55;16.40;99.90
19952;DHT22;10137;49.406;19.484;2023-07-02T04:45:27;16.60;99.90
19952;DHT22;10137;49.406;19.484;2023-07-02T04:48:02;16.70;99.90
19952;DHT22;10137;49.406;19.484;2023-07-02T04:50:31;16.80;99.90
19952;DHT22;10137;49.406;19.484;2023-07-02T04:52:59;16.90;99.90
19952;DHT22;10137;49.406;19.484;2023-07-02T04:55:27;17.10;99.90
19952;DHT22;10137;49.406;19.484;2023-07-02T04:57:55;17.30;99.90
19952;DHT22;10137;49.406;19.484;2023-07-02T05:00:23;17.40;99.90
19952;DHT22;10137;49.406;19.484;2023-07-02T05:02:51;17.60;99.90
19952;DHT22;10137;49.406;19.484;2023-07-02T05:05:19;17.60;99.90
19952;DHT22;10137;49.406;19.484;2023-07-02T05:07:47;17.70;99.90
19952;DHT22;10137;49.406;19.484;2023-07-02T05:10:15;17.70;99.90
19952;DHT22;10137;49.406;19.484;2023-07-02T05:12:43;17.80;99.90
19952;DHT22;10137;49.406;19.484;2023-07-02T05:15:11;17.90;99.90
19952;DHT22;10137;49.406;19.484;2023-07-02T05:17:39;17.90;99.90
19952;DHT22;10137;49.406;19.484;2023-07-02T05:20:10;18.00;99.90
19952;DHT22;10137;49.406;19.484;2023-07-02T05:22:38;18.10;99.90
19952;DHT22;10137;49.406;19.484;2023-07-02T05:25:07;18.10;99.90
19952;DHT22;10137;49.406;19.484;2023-07-02T05:27:35;18.10;99.90
19952;DHT22;10137;49.406;19.484;2023-07-02T05:30:04;18.20;99.90
19952;DHT22;10137;49.406;19.484;2023-07-02T05:32:34;18.20;99.90
19952;DHT22;10137;49.406;19.484;2023-07-02T05:35:02;18.30;99.90
19952;DHT22;10137;49.406;19.484;2023-07-02T05:37:32;18.30;99.90
19952;DHT22;10137;49.406;19.484;2023-07-02T05:40:00;18.30;99.90
19952;DHT22;10137;49.406;19.484;2023-07-02T05:42:28;18.40;99.90
19952;DHT22;10137;49.406;19.484;2023-07-02T05:44:57;18.60;99.90
19952;DHT22;10137;49.406;19.484;2023-07-02T05:47:25;18.80;99.90
19952;DHT22;10137;49.406;19.484;2023-07-02T05:49:52;19.00;99.90
19952;DHT22;10137;49.406;19.484;2023-07-02T05:52:20;19.30;99.90
19952;DHT22;10137;49.406;19.484;2023-07-02T05:54:50;19.50;99.90
19952;DHT22;10137;49.406;19.484;2023-07-02T05:57:18;19.70;99.90
19952;DHT22;10137;49.406;19.484;2023-07-02T05:59:46;19.90;99.90
19952;DHT22;10137;49.406;19.484;2023-07-02T06:02:14;20.10;99.90
19952;DHT22;10137;49.406;19.484;2023-07-02T06:04:43;20.30;99.90
19952;DHT22;10137;49.406;19.484;2023-07-02T06:07:11;20.50;99.90
19952;DHT22;10137;49.406;19.484;2023-07-02T06:09:39;20.70;99.90
19952;DHT22;10137;49.406;19.484;2023-07-02T06:12:09;20.80;99.90
19952;DHT22;10137;49.406;19.484;2023-07-02T06:14:37;20.90;99.90
19952;DHT22;10137;49.406;19.484;2023-07-02T06:17:06;21.00;99.90
19952;DHT22;10137;49.406;19.484;2023-07-02T06:19:35;21.20;99.90
19952;DHT22;10137;49.406;19.484;2023-07-02T06:22:03;21.30;99.90
19952;DHT22;10137;49.406;19.484;2023-07-02T06:24:31;21.50;99.90
19952;DHT22;10137;49.406;19.484;2023-07-02T06:26:59;21.70;99.90
19952;DHT22;10137;49.406;19.484;2023-07-02T06:29:29;21.90;99.90
19952;DHT22;10137;49.406;19.484;2023-07-02T06:31:57;21.90;99.90
19952;DHT22;10137;49.406;19.484;2023-07-02T06:34:26;22.10;99.90
19952;DHT22;10137;49.406;19.484;2023-07-02T06:36:54;22.20;99.90
19952;DHT22;10137;49.406;19.484;2023-07-02T06:39:30;22.50;99.90
19952;DHT22;10137;49.406;19.484;2023-07-02T06:42:01;22.50;99.90
19952;DHT22;10137;49.406;19.484;2023-07-02T06:44:33;22.40;99.90
19952;DHT22;10137;49.406;19.484;2023-07-02T06:47:01;22.20;99.90
19952;DHT22;10137;49.406;19.484;2023-07-02T06:49:31;22.30;99.90
19952;DHT22;10137;49.406;19.484;2023-07-02T06:51:59;22.30;99.90
19952;DHT22;10137;49.406;19.484;2023-07-02T06:54:29;22.30;99.90
19952;DHT22;10137;49.406;19.484;2023-07-02T06:56:59;22.30;99.90
19952;DHT22;10137;49.406;19.484;2023-07-02T06:59:30;22.50;99.90
19952;DHT22;10137;49.406;19.484;2023-07-02T07:02:01;22.70;99.90
19952;DHT22;10137;49.406;19.484;2023-07-02T07:04:28;22.80;99.90
19952;DHT22;10137;49.406;19.484;2023-07-02T07:06:57;22.70;99.90
19952;DHT22;10137;49.406;19.484;2023-07-02T07:09:29;22.60;99.90
19952;DHT22;10137;49.406;19.484;2023-07-02T07:11:58;22.60;99.90
19952;DHT22;10137;49.406;19.484;2023-07-02T07:14:27;22.60;99.90
19952;DHT22;10137;49.406;19.484;2023-07-02T07:16:59;22.70;99.90
19952;DHT22;10137;49.406;19.484;2023-07-02T07:19:28;22.90;99.90
19952;DHT22;10137;49.406;19.484;2023-07-02T07:21:57;23.40;99.90
19952;DHT22;10137;49.406;19.484;2023-07-02T07:24:28;23.70;99.90
19952;DHT22;10137;49.406;19.484;2023-07-02T07:26:56;24.00;99.90
19952;DHT22;10137;49.406;19.484;2023-07-02T07:29:25;24.30;99.90
19952;DHT22;10137;49.406;19.484;2023-07-02T07:31:52;24.30;99.90
19952;DHT22;10137;49.406;19.484;2023-07-02T07:34:22;24.50;99.90
19952;DHT22;10137;49.406;19.484;2023-07-02T07:36:50;24.40;99.90
19952;DHT22;10137;49.406;19.484;2023-07-02T07:39:18;24.20;99.90
19952;DHT22;10137;49.406;19.484;2023-07-02T07:41:47;24.10;99.90
19952;DHT22;10137;49.406;19.484;2023-07-02T07:44:16;23.80;99.80
19952;DHT22;10137;49.406;19.484;2023-07-02T07:46:44;23.60;99.90
19952;DHT22;10137;49.406;19.484;2023-07-02T07:49:13;23.50;99.90
19952;DHT22;10137;49.406;19.484;2023-07-02T07:51:43;23.40;99.90
19952;DHT22;10137;49.406;19.484;2023-07-02T07:54:11;23.30;99.90
19952;DHT22;10137;49.406;19.484;2023-07-02T07:56:39;23.10;99.30
19952;DHT22;10137;49.406;19.484;2023-07-02T07:59:06;23.00;95.90
19952;DHT22;10137;49.406;19.484;2023-07-02T08:01:35;23.00;97.00
19952;DHT22;10137;49.406;19.484;2023-07-02T08:04:03;22.90;93.40
19952;DHT22;10137;49.406;19.484;2023-07-02T08:06:31;22.90;94.30
19952;DHT22;10137;49.406;19.484;2023-07-02T08:09:02;23.10;94.50
19952;DHT22;10137;49.406;19.484;2023-07-02T08:11:31;23.10;94.00
19952;DHT22;10137;49.406;19.484;2023-07-02T08:13:59;23.10;94.10
19952;DHT22;10137;49.406;19.484;2023-07-02T08:16:27;23.10;94.90
19952;DHT22;10137;49.406;19.484;2023-07-02T08:18:55;23.20;95.50
19952;DHT22;10137;49.406;19.484;2023-07-02T08:21:33;23.20;95.20
19952;DHT22;10137;49.406;19.484;2023-07-02T08:24:03;23.20;95.10
19952;DHT22;10137;49.406;19.484;2023-07-02T08:26:32;23.20;94.10
19952;DHT22;10137;49.406;19.484;2023-07-02T08:29:00;23.30;95.50
19952;DHT22;10137;49.406;19.484;2023-07-02T08:31:29;23.50;96.20
19952;DHT22;10137;49.406;19.484;2023-07-02T08:33:57;23.60;93.80
19952;DHT22;10137;49.406;19.484;2023-07-02T08:36:28;23.70;93.30
19952;DHT22;10137;49.406;19.484;2023-07-02T08:38:56;23.90;93.10
19952;DHT22;10137;49.406;19.484;2023-07-02T08:41:25;24.00;94.10
19952;DHT22;10137;49.406;19.484;2023-07-02T08:43:58;24.00;93.70
19952;DHT22;10137;49.406;19.484;2023-07-02T08:46:27;23.80;93.00
19952;DHT22;10137;49.406;19.484;2023-07-02T08:48:55;23.70;93.80
19952;DHT22;10137;49.406;19.484;2023-07-02T08:51:23;23.60;95.20
19952;DHT22;10137;49.406;19.484;2023-07-02T08:53:50;23.30;96.00
19952;DHT22;10137;49.406;19.484;2023-07-02T08:56:21;23.20;97.20
19952;DHT22;10137;49.406;19.484;2023-07-02T08:58:54;23.30;99.00
19952;DHT22;10137;49.406;19.484;2023-07-02T09:01:22;23.20;98.70
19952;DHT22;10137;49.406;19.484;2023-07-02T09:03:50;23.20;99.90
19952;DHT22;10137;49.406;19.484;2023-07-02T09:06:19;23.20;99.90
19952;DHT22;10137;49.406;19.484;2023-07-02T09:08:48;23.20;99.90
19952;DHT22;10137;49.406;19.484;2023-07-02T09:11:22;23.20;99.90
19952;DHT22;10137;49.406;19.484;2023-07-02T09:14:03;23.10;99.90
19952;DHT22;10137;49.406;19.484;2023-07-02T09:16:34;23.10;99.90
19952;DHT22;10137;49.406;19.484;2023-07-02T09:19:06;23.00;99.90
19952;DHT22;10137;49.406;19.484;2023-07-02T09:21:43;22.80;99.90
19952;DHT22;10137;49.406;19.484;2023-07-02T09:24:15;22.60;99.90
19952;DHT22;10137;49.406;19.484;2023-07-02T09:26:44;22.50;99.90
19952;DHT22;10137;49.406;19.484;2023-07-02T09:29:19;22.50;99.90
19952;DHT22;10137;49.406;19.484;2023-07-02T09:31:48;22.50;99.90
19952;DHT22;10137;49.406;19.484;2023-07-02T09:34:18;22.50;99.90
19952;DHT22;10137;49.406;19.484;2023-07-02T09:36:47;22.40;99.90
19952;DHT22;10137;49.406;19.484;2023-07-02T09:39:20;22.40;99.90
19952;DHT22;10137;49.406;19.484;2023-07-02T09:41:50;22.30;99.90
19952;DHT22;10137;49.406;19.484;2023-07-02T09:44:33;22.30;99.90
19952;DHT22;10137;49.406;19.484;2023-07-02T09:47:02;22.20;99.90
19952;DHT22;10137;49.406;19.484;2023-07-02T09:49:34;22.20;99.90
19952;DHT22;10137;49.406;19.484;2023-07-02T09:52:04;22.10;99.90
19952;DHT22;10137;49.406;19.484;2023-07-02T09:54:33;22.00;99.90
19952;DHT22;10137;49.406;19.484;2023-07-02T09:57:01;21.90;99.90
19952;DHT22;10137;49.406;19.484;2023-07-02T09:59:31;21.90;99.90
19952;DHT22;10137;49.406;19.484;2023-07-02T10:01:59;21.80;99.90
19952;DHT22;10137;49.406;19.484;2023-07-02T10:04:28;21.70;99.90
19952;DHT22;10137;49.406;19.484;2023-07-02T10:06:58;21.60;99.90
19952;DHT22;10137;49.406;19.484;2023-07-02T10:09:35;21.50;99.90
19952;DHT22;10137;49.406;19.484;2023-07-02T10:12:17;21.40;99.90
19952;DHT22;10137;49.406;19.484;2023-07-02T10:14:54;21.40;99.90
19952;DHT22;10137;49.406;19.484;2023-07-02T10:17:26;21.40;99.90
19952;DHT22;10137;49.406;19.484;2023-07-02T10:19:56;21.30;99.90
19952;DHT22;10137;49.406;19.484;2023-07-02T10:22:28;21.30;99.90
19952;DHT22;10137;49.406;19.484;2023-07-02T10:24:59;21.10;99.90
19952;DHT22;10137;49.406;19.484;2023-07-02T10:27:37;20.90;99.90
19952;DHT22;10137;49.406;19.484;2023-07-02T10:30:11;21.00;99.90
19952;DHT22;10137;49.406;19.484;2023-07-02T10:32:40;21.00;99.90
19952;DHT22;10137;49.406;19.484;2023-07-02T10:35:14;21.00;99.90
19952;DHT22;10137;49.406;19.484;2023-07-02T10:37:45;21.10;99.90
19952;DHT22;10137;49.406;19.484;2023-07-02T10:40:14;21.30;99.90
19952;DHT22;10137;49.406;19.484;2023-07-02T10:42:49;21.40;99.90
19952;DHT22;10137;49.406;19.484;2023-07-02T10:45:31;21.60;99.90
19952;DHT22;10137;49.406;19.484;2023-07-02T10:48:02;21.60;99.90
19952;DHT22;10137;49.406;19.484;2023-07-02T10:50:32;21.70;99.90
19952;DHT22;10137;49.406;19.484;2023-07-02T10:53:03;21.80;99.90
19952;DHT22;10137;49.406;19.484;2023-07-02T10:55:32;21.80;99.90
19952;DHT22;10137;49.406;19.484;2023-07-02T10:58:06;21.60;99.90
19952;DHT22;10137;49.406;19.484;2023-07-02T11:00:46;21.60;99.90
19952;DHT22;10137;49.406;19.484;2023-07-02T11:03:18;21.50;99.90
19952;DHT22;10137;49.406;19.484;2023-07-02T11:05:47;21.50;99.90
19952;DHT22;10137;49.406;19.484;2023-07-02T11:08:18;21.60;99.90
19952;DHT22;10137;49.406;19.484;2023-07-02T11:11:04;21.50;99.90
19952;DHT22;10137;49.406;19.484;2023-07-02T11:13:33;21.70;99.90
19952;DHT22;10137;49.406;19.484;2023-07-02T11:16:23;21.90;99.90
19952;DHT22;10137;49.406;19.484;2023-07-02T11:19:10;21.90;99.90
19952;DHT22;10137;49.406;19.484;2023-07-02T11:21:38;21.90;99.90
19952;DHT22;10137;49.406;19.484;2023-07-02T11:24:07;21.90;99.90
19952;DHT22;10137;49.406;19.484;2023-07-02T11:26:36;21.90;99.90
19952;DHT22;10137;49.406;19.484;2023-07-02T11:29:10;21.80;99.90
19952;DHT22;10137;49.406;19.484;2023-07-02T11:31:44;21.80;99.90
19952;DHT22;10137;49.406;19.484;2023-07-02T11:34:17;21.90;99.90
19952;DHT22;10137;49.406;19.484;2023-07-02T11:36:46;22.00;99.90
19952;DHT22;10137;49.406;19.484;2023-07-02T11:39:14;22.10;99.90
19952;DHT22;10137;49.406;19.484;2023-07-02T11:41:47;22.10;99.90
19952;DHT22;10137;49.406;19.484;2023-07-02T11:44:18;22.20;99.90
19952;DHT22;10137;49.406;19.484;2023-07-02T11:46:47;22.10;99.90
19952;DHT22;10137;49.406;19.484;2023-07-02T11:49:16;22.10;99.90
19952;DHT22;10137;49.406;19.484;2023-07-02T11:51:45;22.20;99.90
19952;DHT22;10137;49.406;19.484;2023-07-02T11:54:16;22.30;99.90
19952;DHT22;10137;49.406;19.484;2023-07-02T11:56:45;22.30;99.90
19952;DHT22;10137;49.406;19.484;2023-07-02T11:59:14;22.40;99.90
19952;DHT22;10137;49.406;19.484;2023-07-02T12:01:42;22.30;99.90
19952;DHT22;10137;49.406;19.484;2023-07-02T12:04:12;22.20;99.90
19952;DHT22;10137;49.406;19.484;2023-07-02T12:06:41;22.10;99.90
19952;DHT22;10137;49.406;19.484;2023-07-02T12:09:11;22.10;99.90
19952;DHT22;10137;49.406;19.484;2023-07-02T12:11:39;22.10;99.90
19952;DHT22;10137;49.406;19.484;2023-07-02T12:14:07;22.10;99.90
19952;DHT22;10137;49.406;19.484;2023-07-02T12:16:35;22.20;99.90
19952;DHT22;10137;49.406;19.484;2023-07-02T12:19:03;22.20;99.90
19952;DHT22;10137;49.406;19.484;2023-07-02T12:21:37;22.20;99.90
19952;DHT22;10137;49.406;19.484;2023-07-02T12:24:06;22.20;99.90
19952;DHT22;10137;49.406;19.484;2023-07-02T12:26:37;22.20;99.90
19952;DHT22;10137;49.406;19.484;2023-07-02T12:29:08;22.20;99.90
19952;DHT22;10137;49.406;19.484;2023-07-02T12:31:39;22.30;99.90
19952;DHT22;10137;49.406;19.484;2023-07-02T12:34:06;22.30;99.90
19952;DHT22;10137;49.406;19.484;2023-07-02T12:36:37;22.50;99.90
19952;DHT22;10137;49.406;19.484;2023-07-02T12:39:05;22.60;99.90
19952;DHT22;10137;49.406;19.484;2023-07-02T12:41:33;22.60;99.90
19952;DHT22;10137;49.406;19.484;2023-07-02T12:44:05;22.80;99.90
19952;DHT22;10137;49.406;19.484;2023-07-02T12:46:33;22.80;99.90
19952;DHT22;10137;49.406;19.484;2023-07-02T12:49:03;22.80;99.90
19952;DHT22;10137;49.406;19.484;2023-07-02T12:51:31;22.80;99.90
19952;DHT22;10137;49.406;19.484;2023-07-02T12:54:00;22.80;99.90
19952;DHT22;10137;49.406;19.484;2023-07-02T12:56:28;22.90;99.90
19952;DHT22;10137;49.406;19.484;2023-07-02T12:58:56;23.10;99.90
19952;DHT22;10137;49.406;19.484;2023-07-02T13:01:27;23.20;99.90
19952;DHT22;10137;49.406;19.484;2023-07-02T13:03:58;23.20;99.90
19952;DHT22;10137;49.406;19.484;2023-07-02T13:06:28;23.10;99.90
19952;DHT22;10137;49.406;19.484;2023-07-02T13:09:02;23.10;99.90
19952;DHT22;10137;49.406;19.484;2023-07-02T13:11:30;23.20;99.90
19952;DHT22;10137;49.406;19.484;2023-07-02T13:14:00;23.20;99.90
19952;DHT22;10137;49.406;19.484;2023-07-02T13:16:28;23.20;99.90
19952;DHT22;10137;49.406;19.484;2023-07-02T13:18:56;23.10;99.90
19952;DHT22;10137;49.406;19.484;2023-07-02T13:21:30;23.10;99.90
19952;DHT22;10137;49.406;19.484;2023-07-02T13:23:58;23.10;99.90
19952;DHT22;10137;49.406;19.484;2023-07-02T13:26:31;23.10;99.90
19952;DHT22;10137;49.406;19.484;2023-07-02T13:28:59;23.10;99.90
19952;DHT22;10137;49.406;19.484;2023-07-02T13:31:28;23.00;99.90
19952;DHT22;10137;49.406;19.484;2023-07-02T13:33:58;23.10;99.90
19952;DHT22;10137;49.406;19.484;2023-07-02T13:36:25;23.20;99.90
19952;DHT22;10137;49.406;19.484;2023-07-02T13:38:55;23.20;99.90
19952;DHT22;10137;49.406;19.484;2023-07-02T13:41:23;23.10;99.90
19952;DHT22;10137;49.406;19.484;2023-07-02T13:43:53;23.10;99.90
19952;DHT22;10137;49.406;19.484;2023-07-02T13:46:21;23.10;99.90
19952;DHT22;10137;49.406;19.484;2023-07-02T13:48:50;23.20;99.90
19952;DHT22;10137;49.406;19.484;2023-07-02T13:51:19;23.40;99.90
19952;DHT22;10137;49.406;19.484;2023-07-02T13:53:47;23.40;99.90
19952;DHT22;10137;49.406;19.484;2023-07-02T13:56:15;23.40;99.90
19952;DHT22;10137;49.406;19.484;2023-07-02T13:59:04;23.30;99.90
19952;DHT22;10137;49.406;19.484;2023-07-02T14:01:33;23.20;99.90
19952;DHT22;10137;49.406;19.484;2023-07-02T14:04:01;23.20;99.90
19952;DHT22;10137;49.406;19.484;2023-07-02T14:06:29;23.10;99.90
19952;DHT22;10137;49.406;19.484;2023-07-02T14:08:58;23.00;99.90
19952;DHT22;10137;49.406;19.484;2023-07-02T14:11:28;23.00;99.90
19952;DHT22;10137;49.406;19.484;2023-07-02T14:13:56;22.90;99.90
19952;DHT22;10137;49.406;19.484;2023-07-02T14:16:28;22.80;99.90
19952;DHT22;10137;49.406;19.484;2023-07-02T14:18:56;22.70;99.90
19952;DHT22;10137;49.406;19.484;2023-07-02T14:21:25;22.60;99.90
19952;DHT22;10137;49.406;19.484;2023-07-02T14:23:53;22.60;99.90
19952;DHT22;10137;49.406;19.484;2023-07-02T14:26:21;22.60;99.90
19952;DHT22;10137;49.406;19.484;2023-07-02T14:28:50;22.50;99.90
19952;DHT22;10137;49.406;19.484;2023-07-02T14:31:18;22.40;99.90
19952;DHT22;10137;49.406;19.484;2023-07-02T14:33:48;22.40;99.90
19952;DHT22;10137;49.406;19.484;2023-07-02T14:36:16;22.40;99.90
19952;DHT22;10137;49.406;19.484;2023-07-02T14:38:45;22.50;99.90
19952;DHT22;10137;49.406;19.484;2023-07-02T14:41:13;22.50;99.90
19952;DHT22;10137;49.406;19.484;2023-07-02T14:43:41;22.50;99.90
19952;DHT22;10137;49.406;19.484;2023-07-02T14:46:11;22.50;99.90
19952;DHT22;10137;49.406;19.484;2023-07-02T14:48:38;22.50;99.90
19952;DHT22;10137;49.406;19.484;2023-07-02T14:51:09;22.40;99.90
19952;DHT22;10137;49.406;19.484;2023-07-02T14:53:38;22.50;99.90
19952;DHT22;10137;49.406;19.484;2023-07-02T14:56:09;22.60;99.90
19952;DHT22;10137;49.406;19.484;2023-07-02T14:58:37;22.60;99.90
19952;DHT22;10137;49.406;19.484;2023-07-02T15:01:08;22.60;99.90
19952;DHT22;10137;49.406;19.484;2023-07-02T15:03:39;22.60;99.90
19952;DHT22;10137;49.406;19.484;2023-07-02T15:06:10;22.50;99.90
19952;DHT22;10137;49.406;19.484;2023-07-02T15:08:40;22.50;99.90
19952;DHT22;10137;49.406;19.484;2023-07-02T15:11:09;22.50;99.50
19952;DHT22;10137;49.406;19.484;2023-07-02T15:13:36;22.30;99.90
19952;DHT22;10137;49.406;19.484;2023-07-02T15:16:05;22.30;99.70
19952;DHT22;10137;49.406;19.484;2023-07-02T15:18:35;22.30;99.90
19952;DHT22;10137;49.406;19.484;2023-07-02T15:21:02;22.40;99.90
19952;DHT22;10137;49.406;19.484;2023-07-02T15:23:33;22.50;99.90
19952;DHT22;10137;49.406;19.484;2023-07-02T15:26:03;22.50;99.90
19952;DHT22;10137;49.406;19.484;2023-07-02T15:28:32;22.60;99.90